Flight Track Log - Related Links

Times and Time Zones

All times are in EDT time to prevent confusion due to time zone crossing. See the CES5766 flight status page for this flight to view local times or setup timezone preferences in your user account.

Time Position Orientation Groundspeed Altitude Reporting Facility
EDT Latitude Longitude Course Direction KTS MPH feet Rate Location/Type
Fri 05:47:00 AM 38.5745 120.7854 237° Southwest  Level Estimated
Fri 05:48:00 AM 38.5308 120.7022 236° Southwest  Level Estimated
Fri 05:49:00 AM 38.4869 120.6191 236° Southwest  Level Estimated
Fri 05:50:00 AM 38.4431 120.5361 236° Southwest  Level Estimated
Fri 05:51:00 AM 38.3992 120.4532 236° Southwest  Level Estimated
Fri 05:52:00 AM 38.3552 120.3705 236° Southwest  Level Estimated
Fri 05:53:00 AM 38.3111 120.2878 236° Southwest  Level Estimated
Fri 05:54:00 AM 38.2670 120.2052 236° Southwest  Level Estimated
Fri 05:55:00 AM 38.2228 120.1227 236° Southwest  Level Estimated
Fri 05:56:00 AM 38.1786 120.0404 236° Southwest  Level Estimated
Fri 05:57:00 AM 38.1343 119.9581 236° Southwest  Level Estimated
Fri 05:58:00 AM 38.0900 119.8759 236° Southwest  Level Estimated
Fri 05:59:00 AM 38.0456 119.7938 236° Southwest  Level Estimated
Fri 06:00:00 AM 38.0012 119.7118 235° Southwest  Level Estimated
Fri 06:01:00 AM 37.9566 119.6300 235° Southwest  Level Estimated
Fri 06:02:00 AM 37.9121 119.5482 235° Southwest  Level Estimated
Fri 06:03:00 AM 37.8675 119.4665 235° Southwest  Level Estimated
Fri 06:04:00 AM 37.8228 119.3849 235° Southwest  Level Estimated
Fri 06:05:00 AM 37.7781 119.3034 235° Southwest  Level Estimated
Fri 06:06:00 AM 37.7333 119.2221 235° Southwest  Level Estimated
Fri 06:07:00 AM 37.6884 119.1408 235° Southwest  Level Estimated
Fri 06:08:00 AM 37.6435 119.0596 235° Southwest  Level Estimated
Fri 06:09:00 AM 37.5986 118.9785 235° Southwest  Level Estimated
Fri 06:10:00 AM 37.5536 118.8975 235° Southwest  Level Estimated
Fri 06:11:00 AM 37.5085 118.8166 235° Southwest  Level Estimated
Fri 06:12:00 AM 37.4634 118.7358 235° Southwest  Level Estimated
Fri 06:13:00 AM 37.4182 118.6551 235° Southwest  Level Estimated
Fri 06:14:00 AM 37.3730 118.5745 235° Southwest  Level Estimated
Fri 06:15:00 AM 37.3277 118.4940 235° Southwest  Level Estimated
Fri 06:16:00 AM 37.2823 118.4136 235° Southwest  Level Estimated
Fri 06:17:00 AM 37.2369 118.3333 235° Southwest  Level Estimated
Fri 06:18:00 AM 37.1915 118.2531 235° Southwest  Level Estimated
Fri 06:19:00 AM 37.1460 118.1730 235° Southwest  Level Estimated
Fri 06:20:00 AM 37.1004 118.0929 234° Southwest  Level Estimated
Fri 06:21:00 AM 37.0548 118.0130 234° Southwest  Level Estimated
Fri 06:22:00 AM 37.0091 117.9332 234° Southwest  Level Estimated
Fri 06:23:00 AM 36.9634 117.8534 234° Southwest  Level Estimated
Fri 06:24:00 AM 36.9176 117.7738 234° Southwest  Level Estimated
Fri 06:25:00 AM 36.8718 117.6943 234° Southwest  Level Estimated
Fri 06:26:00 AM 36.8259 117.6148 234° Southwest  Level Estimated
Fri 06:27:00 AM 36.7800 117.5355 234° Southwest  Level Estimated
Fri 06:28:00 AM 36.7340 117.4562 234° Southwest  Level Estimated
Fri 06:29:00 AM 36.6880 117.3771 234° Southwest  Level Estimated
Fri 06:30:00 AM 36.6419 117.2980 234° Southwest  Level Estimated
Fri 06:31:00 AM 36.5957 117.2190 234° Southwest  Level Estimated
Fri 06:32:00 AM 36.5496 117.1401 234° Southwest  Level Estimated
Fri 06:33:00 AM 36.5033 117.0613 234° Southwest  Level Estimated
Fri 06:34:00 AM 36.4570 116.9827 234° Southwest  Level Estimated
Fri 06:35:00 AM 36.4107 116.9041 234° Southwest  Level Estimated
Fri 06:36:00 AM 36.3643 116.8256 234° Southwest  Level Estimated
Fri 06:37:00 AM 36.3178 116.7472 234° Southwest  Level Estimated
Fri 06:38:00 AM 36.2713 116.6689 234° Southwest  Level Estimated
Fri 06:39:00 AM 36.2248 116.5906 234° Southwest  Level Estimated
Fri 06:40:00 AM 36.1782 116.5125 234° Southwest  Level Estimated
Fri 06:41:00 AM 36.1315 116.4345 234° Southwest  Level Estimated
Fri 06:42:00 AM 36.0848 116.3565 233° Southwest  Level Estimated
Fri 06:43:00 AM 36.0381 116.2787 233° Southwest  Level Estimated
Fri 06:44:00 AM 35.9912 116.2009 233° Southwest  Level Estimated
Fri 06:45:00 AM 35.9444 116.1233 233° Southwest  Level Estimated
Fri 06:46:00 AM 35.8975 116.0457 233° Southwest  Level Estimated
Fri 06:47:00 AM 35.8505 115.9682 233° Southwest  Level Estimated
Fri 06:48:00 AM 35.8035 115.8908 233° Southwest  Level Estimated
Fri 06:49:00 AM 35.7565 115.8135 233° Southwest  Level Estimated
Fri 06:50:00 AM 35.7094 115.7363 233° Southwest  Level Estimated
Fri 06:51:00 AM 35.6622 115.6592 233° Southwest  Level Estimated
Fri 06:52:00 AM 35.6150 115.5822 233° Southwest  Level Estimated
Fri 06:53:00 AM 35.5678 115.5052 233° Southwest  Level Estimated
Fri 06:54:00 AM 35.5205 115.4284 233° Southwest  Level Estimated
Fri 06:55:00 AM 35.4731 115.3517 233° Southwest  Level Estimated
Fri 06:56:00 AM 35.4257 115.2750 233° Southwest  Level Estimated
Fri 06:57:00 AM 35.3783 115.1984 233° Southwest  Level Estimated
Fri 06:58:00 AM 35.3308 115.1219 233° Southwest  Level Estimated
Fri 06:59:00 AM 35.2832 115.0456 233° Southwest  Level Estimated
Fri 07:00:00 AM 35.2356 114.9693 233° Southwest  Level Estimated
Fri 07:01:00 AM 35.1880 114.8931 233° Southwest  Level Estimated
Fri 07:02:00 AM 35.1403 114.8169 233° Southwest  Level Estimated
Fri 07:03:00 AM 35.0926 114.7409 233° Southwest  Level Estimated
Fri 07:04:00 AM 35.0448 114.6650 232° Southwest  Level Estimated
Fri 07:05:00 AM 34.9970 114.5891 232° Southwest  Level Estimated
Fri 07:06:00 AM 34.9491 114.5133 232° Southwest  Level Estimated
Fri 07:07:00 AM 34.9012 114.4377 232° Southwest  Level Estimated
Fri 07:08:00 AM 34.8532 114.3621 232° Southwest  Level Estimated
Fri 07:09:00 AM 34.8052 114.2866 232° Southwest  Level Estimated
Fri 07:10:00 AM 34.7571 114.2112 232° Southwest  Level Estimated
Fri 07:11:00 AM 34.7090 114.1358 232° Southwest  Level Estimated
Fri 07:12:00 AM 34.6571 114.0547 232° Southwest  Level Estimated
Fri 07:13:00 AM 34.6052 113.9738 232° Southwest  Level Estimated
Fri 07:14:00 AM 34.5532 113.8929 232° Southwest  Level Estimated
Fri 07:15:00 AM 34.5197 113.8409 232° Southwest  Level Estimated
Fri 07:16:00 AM 34.5197 113.8409 338° Northwest  Level Estimated
Fri 07:17:00 AM 34.5197 113.8409 338° Northwest  Level Estimated
Fri 07:18:00 AM 34.5197 113.8409 338° Northwest  Level Estimated
Fri 07:19:00 AM 34.5197 113.8409 338° Northwest  Level Estimated
Fri 07:20:00 AM 34.5197 113.8409 338° Northwest  Level Estimated
Fri 07:21:00 AM 34.5197 113.8409 338° Northwest  Level Estimated
Fri 07:22:00 AM 34.5197 113.8409 338° Northwest  Level Estimated
Fri 07:23:00 AM 34.5197 113.8409 338° Northwest  Level Estimated
Fri 07:24:00 AM 34.5197 113.8409 338° Northwest  Level Estimated

Login

Don't have an account? Register now (free) for customized features, flight alerts, and more!